THY446 LTBS-EPGD
Flight info
| Callsign | THY446 |
|---|---|
| Flight time | N/A |
| Altitude | 36000 |
| Route | KEKIK DCT YOYYO UN128 LMO DCT ATFIR DCT LOMOS DCT OVDOT DCT MEGIK DCT LENOV N133 GRUDA Z95 OSLOG |
| Aircraft | B39M/M-SDE1FGHILORVWXY/HB1 |
Departure
| Time | 2026-04-26 07:38 |
|---|---|
| Airport | Dalaman International Airport (LTBS) |
Arrival
| Time | N/A |
|---|---|
| Airport | Gdańsk Lech Wałęsa Airport (EPGD) |
| Time | Latitude | Longitude | Altitude | Speed | Heading |
|---|---|---|---|---|---|
| 2026-04-26 07:37 | 36.97168 | 28.57809 | 11992 ft | 349 kts | 303° |
| 2026-04-26 07:38 | 36.98530 | 28.55146 | 12580 ft | 359 kts | 303° |
| 2026-04-26 07:38 | 36.99937 | 28.52395 | 13185 ft | 367 kts | 303° |
| 2026-04-26 07:38 | 37.01330 | 28.49665 | 13746 ft | 375 kts | 303° |
| 2026-04-26 07:38 | 37.02748 | 28.46881 | 14341 ft | 382 kts | 303° |
| 2026-04-26 07:39 | 37.04237 | 28.43958 | 14928 ft | 389 kts | 303° |
| 2026-04-26 07:39 | 37.05759 | 28.40963 | 15593 ft | 394 kts | 303° |
| 2026-04-26 07:39 | 37.07206 | 28.37929 | 16277 ft | 397 kts | 299° |
| 2026-04-26 07:39 | 37.08440 | 28.34701 | 16969 ft | 400 kts | 293° |
| 2026-04-26 07:40 | 37.09444 | 28.31378 | 17622 ft | 402 kts | 289° |
| 2026-04-26 07:40 | 37.10340 | 28.27973 | 18311 ft | 404 kts | 288° |
| 2026-04-26 07:40 | 37.11195 | 28.24544 | 19001 ft | 405 kts | 288° |
| 2026-04-26 07:40 | 37.12053 | 28.21101 | 19699 ft | 405 kts | 288° |
| 2026-04-26 07:41 | 37.12939 | 28.17616 | 20397 ft | 405 kts | 289° |
| 2026-04-26 07:41 | 37.13846 | 28.14092 | 21111 ft | 405 kts | 289° |
| 2026-04-26 07:41 | 37.14749 | 28.10609 | 21823 ft | 404 kts | 289° |
| 2026-04-26 07:41 | 37.15649 | 28.07144 | 22553 ft | 402 kts | 289° |
| 2026-04-26 07:42 | 37.16246 | 28.04846 | 23033 ft | 400 kts | 289° |
| 2026-04-26 07:42 | 37.17148 | 28.01377 | 23766 ft | 398 kts | 290° |
| 2026-04-26 07:42 | 37.18305 | 27.96925 | 24697 ft | 393 kts | 290° |
| 2026-04-26 07:42 | 37.19181 | 27.93554 | 25366 ft | 390 kts | 290° |
| 2026-04-26 07:43 | 37.20051 | 27.90200 | 25801 ft | 393 kts | 290° |
| 2026-04-26 07:43 | 37.20906 | 27.86901 | 26189 ft | 397 kts | 290° |
| 2026-04-26 07:43 | 37.21791 | 27.83481 | 26589 ft | 400 kts | 290° |
| 2026-04-26 07:43 | 37.22666 | 27.80094 | 26986 ft | 402 kts | 291° |
| 2026-04-26 07:44 | 37.23559 | 27.76640 | 27388 ft | 405 kts | 291° |
| 2026-04-26 07:44 | 37.24446 | 27.73198 | 27787 ft | 407 kts | 291° |
| 2026-04-26 07:44 | 37.25343 | 27.69714 | 28189 ft | 408 kts | 291° |
| 2026-04-26 07:44 | 37.26247 | 27.66192 | 28593 ft | 410 kts | 291° |
| 2026-04-26 07:45 | 37.27139 | 27.62786 | 28985 ft | 410 kts | 294° |
| 2026-04-26 07:45 | 37.28247 | 27.59471 | 29379 ft | 407 kts | 302° |
| 2026-04-26 07:45 | 37.29754 | 27.56479 | 29773 ft | 402 kts | 313° |